Time;durP1;ratioP1;P1;durP2;ratioP2;P2;SDS_P1;SDS_P2;PMS_P1;PMS_P2;Temp;Humidity;BMP_temperature;BMP_pressure;BME280_temperature;BME280_humidity;BME280_pressure;Samples;Min_cycle;Max_cycle;Signal;HPM_P1;HPM_P2
2021/12/03 00:00:40;;;;;;;3.23;2.67;;;;;;;4.23;100.00;97433.28;5050027;28;20032;-58
2021/12/03 00:03:07;;;;;;;3.43;3.10;;;;;;;4.14;100.00;97426.66;5048085;28;20060;-56
2021/12/03 00:05:33;;;;;;;4.83;3.40;;;;;;;4.03;100.00;97426.75;5047348;28;20037;-59
2021/12/03 00:07:59;;;;;;;5.20;3.77;;;;;;;4.09;100.00;97425.84;5046884;28;20055;-57
2021/12/03 00:10:26;;;;;;;4.63;3.40;;;;;;;4.06;100.00;97441.97;5052654;28;20052;-58
2021/12/03 00:12:52;;;;;;;3.80;3.40;;;;;;;4.01;100.00;97448.78;5045752;28;20081;-58
2021/12/03 00:15:19;;;;;;;4.00;3.57;;;;;;;4.02;100.00;97454.69;5047169;28;20029;-58
2021/12/03 00:17:45;;;;;;;5.33;4.20;;;;;;;4.01;100.00;97453.84;5046952;28;20109;-58
2021/12/03 00:20:14;;;;;;;5.53;3.73;;;;;;;3.98;100.00;97463.19;5051621;28;20041;-58
2021/12/03 00:22:41;;;;;;;4.30;3.40;;;;;;;3.95;100.00;97450.53;5047742;28;20041;-54
2021/12/03 00:25:07;;;;;;;3.90;3.03;;;;;;;3.77;100.00;97479.50;5046304;28;20045;-58
2021/12/03 00:27:32;;;;;;;5.33;3.50;;;;;;;3.74;100.00;97479.50;5048982;28;20037;-57
2021/12/03 00:29:58;;;;;;;3.90;3.10;;;;;;;3.76;100.00;97490.47;5048517;28;20732;-57
2021/12/03 00:32:24;;;;;;;3.93;2.80;;;;;;;3.74;100.00;97493.88;5048041;28;20078;-57
2021/12/03 00:34:49;;;;;;;5.20;2.37;;;;;;;3.72;100.00;97501.50;5045776;28;20041;-57
2021/12/03 00:37:15;;;;;;;3.50;2.63;;;;;;;3.70;100.00;97503.19;5030503;28;20049;-58
2021/12/03 00:39:42;;;;;;;4.73;2.73;;;;;;;3.66;100.00;97502.41;5050566;28;20060;-57
2021/12/03 00:42:08;;;;;;;2.40;2.07;;;;;;;3.62;100.00;97508.34;5046439;28;20475;-58
2021/12/03 00:44:34;;;;;;;3.23;2.27;;;;;;;3.62;100.00;97512.56;5046999;28;20044;-57
2021/12/03 00:46:59;;;;;;;2.70;1.90;;;;;;;3.69;100.00;97522.63;5048044;28;20050;-56
2021/12/03 00:49:26;;;;;;;2.30;2.10;;;;;;;3.67;100.00;97528.59;5051076;28;20041;-54
2021/12/03 00:51:51;;;;;;;3.53;2.23;;;;;;;3.58;100.00;97541.34;5047937;28;20056;-55
2021/12/03 00:54:17;;;;;;;3.00;2.50;;;;;;;3.62;100.00;97536.22;5045656;28;20146;-56
2021/12/03 00:56:43;;;;;;;3.60;2.53;;;;;;;3.53;100.00;97538.00;5047911;28;20052;-59
2021/12/03 00:59:09;;;;;;;2.27;2.07;;;;;;;3.57;100.00;97537.97;5048965;28;20032;-58
2021/12/03 01:01:35;;;;;;;5.20;3.97;;;;;;;3.64;100.00;97546.38;5046871;28;20040;-58
2021/12/03 01:04:01;;;;;;;2.40;2.20;;;;;;;3.63;100.00;97553.13;5046185;28;20168;-57
2021/12/03 01:06:26;;;;;;;4.70;2.27;;;;;;;3.66;100.00;97557.31;5048085;28;20108;-56
2021/12/03 01:08:52;;;;;;;4.63;2.93;;;;;;;3.68;100.00;97560.69;5049857;28;20037;-57
2021/12/03 01:11:18;;;;;;;3.53;3.10;;;;;;;3.77;100.00;97563.13;5046096;28;20044;-57
2021/12/03 01:13:45;;;;;;;7.70;2.90;;;;;;;3.79;100.00;97569.03;5046272;28;20295;-57
2021/12/03 01:16:13;;;;;;;5.13;3.23;;;;;;;3.86;100.00;97567.28;5047980;28;20036;-57
2021/12/03 01:18:40;;;;;;;2.43;2.17;;;;;;;3.89;100.00;97573.16;5050549;28;20037;-57
2021/12/03 01:21:06;;;;;;;4.23;2.83;;;;;;;3.89;100.00;97580.75;5044919;28;20029;-57
2021/12/03 01:23:32;;;;;;;3.90;2.97;;;;;;;3.92;100.00;97582.41;5046535;28;20053;-58
2021/12/03 01:25:58;;;;;;;2.83;2.60;;;;;;;3.96;100.00;97589.97;5047742;28;20044;-58
2021/12/03 01:28:26;;;;;;;5.57;3.20;;;;;;;3.92;100.00;97590.03;5050607;28;20048;-59
2021/12/03 01:30:51;;;;;;;4.00;3.07;;;;;;;3.95;100.00;97595.06;5044593;28;20109;-58
2021/12/03 01:33:17;;;;;;;3.83;2.73;;;;;;;3.94;100.00;97594.25;5045604;28;20037;-58
2021/12/03 01:35:43;;;;;;;4.13;3.07;;;;;;;3.99;100.00;97600.09;5049794;28;20052;-59
2021/12/03 01:38:08;;;;;;;5.37;3.63;;;;;;;3.89;100.00;97600.19;5045301;28;20119;-57
2021/12/03 01:40:36;;;;;;;4.13;3.33;;;;;;;3.90;100.00;97617.94;5044247;28;20045;-57
2021/12/03 01:43:04;;;;;;;4.37;3.73;;;;;;;3.65;100.00;97598.69;5045392;28;20044;-55
2021/12/03 01:45:32;;;;;;;5.00;3.93;;;;;;;3.44;100.00;97632.66;5048270;28;20513;-58
2021/12/03 01:47:58;;;;;;;6.40;3.10;;;;;;;3.38;100.00;97634.41;5047347;28;20120;-58
2021/12/03 01:50:38;;;;;;;6.33;3.07;;;;;;;3.21;100.00;97627.75;5046173;28;20053;-58
2021/12/03 01:53:04;;;;;;;4.40;3.20;;;;;;;3.21;100.00;97635.34;5046092;28;20033;-58
2021/12/03 01:55:30;;;;;;;3.67;3.30;;;;;;;3.10;100.00;97644.69;5050235;28;20076;-57
2021/12/03 01:57:56;;;;;;;5.13;3.63;;;;;;;3.01;100.00;97657.38;5048821;28;20117;-56
2021/12/03 02:00:32;;;;;;;5.37;3.63;;;;;;;3.02;100.00;97656.53;5051160;28;20075;-58
2021/12/03 02:02:58;;;;;;;5.33;4.40;;;;;;;2.81;100.00;97654.13;5052495;28;20048;-57
2021/12/03 02:05:24;;;;;;;5.40;4.10;;;;;;;2.76;100.00;97650.75;5074356;28;20048;-58
2021/12/03 02:07:50;;;;;;;6.53;4.60;;;;;;;2.75;100.00;97657.53;5068330;28;20501;-58
2021/12/03 02:10:18;;;;;;;6.03;4.50;;;;;;;2.73;100.00;97654.16;5070762;28;20040;-59
2021/12/03 02:12:43;;;;;;;4.97;4.10;;;;;;;2.74;100.00;97652.47;5072123;28;20150;-59
2021/12/03 02:15:10;;;;;;;6.23;4.70;;;;;;;2.76;100.00;97660.88;5072914;28;20123;-59
2021/12/03 02:17:36;;;;;;;6.03;4.73;;;;;;;2.70;100.00;97658.38;5069806;28;20068;-57
2021/12/03 02:20:03;;;;;;;7.20;4.13;;;;;;;2.76;100.00;97656.66;5069811;28;20462;-59
2021/12/03 02:22:28;;;;;;;7.00;4.57;;;;;;;2.73;100.00;97656.69;5073331;28;20108;-58
2021/12/03 02:24:53;;;;;;;5.23;4.47;;;;;;;2.84;100.00;97658.34;5071952;28;20119;-58
2021/12/03 02:27:19;;;;;;;6.40;4.53;;;;;;;2.92;100.00;97671.81;5067573;28;20179;-58
2021/12/03 02:29:44;;;;;;;4.90;4.40;;;;;;;2.90;100.00;97678.53;5070611;28;20044;-60
2021/12/03 02:32:10;;;;;;;4.57;4.00;;;;;;;2.94;100.00;97682.75;5071844;28;20037;-60
2021/12/03 02:34:36;;;;;;;4.53;3.87;;;;;;;2.92;100.00;97687.00;5073879;28;20494;-59
2021/12/03 02:37:03;;;;;;;5.27;4.17;;;;;;;2.94;100.00;97681.06;5068316;28;20127;-59
2021/12/03 02:39:29;;;;;;;4.77;4.37;;;;;;;2.94;100.00;97692.88;5069911;28;20032;-59
2021/12/03 02:41:54;;;;;;;4.97;3.93;;;;;;;2.94;100.00;97696.25;5072337;28;20360;-58
2021/12/03 02:44:20;;;;;;;5.03;4.13;;;;;;;2.98;100.00;97699.59;5071917;28;20386;-59
2021/12/03 02:46:45;;;;;;;5.37;4.50;;;;;;;2.96;100.00;97704.69;5069141;28;20043;-59
2021/12/03 02:49:14;;;;;;;4.63;4.00;;;;;;;2.93;100.00;97703.88;5069296;28;20105;-59
2021/12/03 02:51:40;;;;;;;4.63;4.03;;;;;;;3.08;100.00;97712.22;5073225;28;20071;-59
2021/12/03 02:54:06;;;;;;;4.70;3.73;;;;;;;3.04;100.00;97704.66;5072417;28;20036;-58
2021/12/03 02:56:31;;;;;;;5.33;4.37;;;;;;;3.10;100.00;97719.81;5066854;28;20067;-58
2021/12/03 02:58:57;;;;;;;4.90;3.87;;;;;;;3.12;100.00;97724.03;5067595;28;20083;-59
2021/12/03 03:01:24;;;;;;;3.83;3.53;;;;;;;3.15;100.00;97731.59;5069414;28;20072;-59
2021/12/03 03:03:49;;;;;;;5.03;4.30;;;;;;;3.17;100.00;97737.50;5068043;28;20052;-60
2021/12/03 03:06:15;;;;;;;4.23;3.47;;;;;;;3.21;100.00;97740.88;5066086;28;20033;-59
2021/12/03 03:08:43;;;;;;;4.07;3.53;;;;;;;3.27;100.00;97743.34;5067185;28;20045;-59
2021/12/03 03:11:09;;;;;;;4.03;3.63;;;;;;;3.35;100.00;97748.41;5069091;28;20033;-59
2021/12/03 03:13:36;;;;;;;3.80;3.10;;;;;;;3.26;100.00;97753.50;5067900;28;20564;-59
2021/12/03 03:16:02;;;;;;;3.27;2.97;;;;;;;3.24;100.00;97758.56;5066458;28;20044;-57
2021/12/03 03:18:28;;;;;;;5.83;3.83;;;;;;;3.30;100.00;97762.78;5067748;28;20383;-59
2021/12/03 03:20:59;;;;;;;3.57;3.13;;;;;;;3.24;100.00;97766.19;5050587;28;20036;-59
2021/12/03 03:23:25;;;;;;;3.73;3.43;;;;;;;3.24;100.00;97773.78;5067120;28;20049;-58
2021/12/03 03:25:51;;;;;;;4.57;4.00;;;;;;;3.27;100.00;97776.28;5067376;28;20036;-59
2021/12/03 03:28:19;;;;;;;4.80;3.80;;;;;;;3.20;100.00;97777.16;5070532;28;20063;-58
2021/12/03 03:30:46;;;;;;;4.23;3.53;;;;;;;3.25;100.00;97769.56;5068674;28;20048;-59
2021/12/03 03:33:13;;;;;;;4.33;3.93;;;;;;;3.28;100.00;97780.50;5069094;28;20085;-59
2021/12/03 03:35:39;;;;;;;5.40;4.17;;;;;;;3.26;100.00;97779.69;5068390;28;20039;-60
2021/12/03 03:38:06;;;;;;;5.63;4.27;;;;;;;3.29;100.00;97791.50;5068742;28;20044;-59
2021/12/03 03:40:32;;;;;;;8.57;5.47;;;;;;;3.22;100.00;97795.75;5071970;28;20051;-60
2021/12/03 03:42:59;;;;;;;8.43;5.77;;;;;;;3.21;100.00;97801.66;5067918;28;20045;-60
2021/12/03 03:45:26;;;;;;;7.83;5.67;;;;;;;3.19;100.00;97796.59;5068364;28;20090;-59
2021/12/03 03:47:52;;;;;;;7.37;4.97;;;;;;;3.10;100.00;97800.81;5067761;28;20444;-58
2021/12/03 03:50:19;;;;;;;5.97;4.67;;;;;;;3.07;100.00;97809.28;5071029;28;20275;-58
2021/12/03 03:52:47;;;;;;;7.77;5.63;;;;;;;3.09;100.00;97806.75;5066603;28;20062;-59
2021/12/03 03:55:14;;;;;;;7.43;5.63;;;;;;;2.98;100.00;97818.59;5068661;28;20376;-58
2021/12/03 03:57:41;;;;;;;7.30;4.80;;;;;;;2.86;100.00;97816.94;5068108;28;20032;-59
2021/12/03 04:00:10;;;;;;;7.23;4.93;;;;;;;2.80;100.00;97828.75;5071613;28;20036;-58
2021/12/03 04:02:35;;;;;;;6.57;4.13;;;;;;;2.78;100.00;97830.44;5066667;28;20066;-56
2021/12/03 04:05:01;;;;;;;5.77;4.03;;;;;;;2.66;100.00;97829.63;5069879;28;20066;-57
2021/12/03 04:07:26;;;;;;;4.83;3.67;;;;;;;2.59;100.00;97842.28;5067937;28;20067;-58
2021/12/03 04:09:51;;;;;;;4.67;3.13;;;;;;;2.40;100.00;97843.09;5073431;28;20056;-58
2021/12/03 04:12:17;;;;;;;5.53;2.83;;;;;;;2.46;100.00;97838.06;5068985;28;20070;-59
2021/12/03 04:14:42;;;;;;;4.50;3.07;;;;;;;2.53;100.00;97845.66;5067520;28;20039;-59
2021/12/03 04:17:08;;;;;;;7.17;3.10;;;;;;;2.52;100.00;97841.41;5066410;28;20118;-59
2021/12/03 04:19:33;;;;;;;4.00;2.70;;;;;;;2.52;100.00;97843.09;5069331;28;20098;-59
2021/12/03 04:21:59;;;;;;;2.63;2.13;;;;;;;2.43;100.00;97855.75;5067101;28;20405;-58
2021/12/03 04:24:24;;;;;;;4.03;2.47;;;;;;;2.38;100.00;97850.69;5066542;28;20047;-58
2021/12/03 04:26:50;;;;;;;5.73;1.97;;;;;;;2.39;100.00;97859.13;5067121;28;20449;-58
2021/12/03 04:29:15;;;;;;;5.93;2.03;;;;;;;2.35;100.00;97870.91;5067583;28;20037;-58
2021/12/03 04:31:41;;;;;;;4.07;2.27;;;;;;;2.27;100.00;97875.13;5066965;28;20048;-58
2021/12/03 04:34:06;;;;;;;2.90;1.80;;;;;;;2.37;100.00;97881.91;5067066;28;20811;-59
2021/12/03 04:36:32;;;;;;;2.83;1.83;;;;;;;2.33;100.00;97877.69;5067314;28;20071;-60
2021/12/03 04:38:57;;;;;;;3.50;2.83;;;;;;;2.25;100.00;97885.22;5065827;28;20071;-59
2021/12/03 04:41:22;;;;;;;4.73;2.70;;;;;;;2.27;100.00;97875.13;5066459;28;20161;-59
2021/12/03 04:43:48;;;;;;;4.20;2.60;;;;;;;2.30;100.00;97883.56;5067153;28;20036;-59
2021/12/03 04:46:13;;;;;;;4.27;3.00;;;;;;;2.34;100.00;97873.44;5067251;28;20080;-59
2021/12/03 04:48:39;;;;;;;4.77;2.63;;;;;;;2.35;100.00;97888.63;5066376;28;20037;-57
2021/12/03 04:51:04;;;;;;;3.33;2.67;;;;;;;2.37;100.00;97886.97;5067060;28;20041;-57
2021/12/03 04:53:30;;;;;;;4.87;2.80;;;;;;;2.45;100.00;97900.44;5064764;28;20063;-57
2021/12/03 04:55:55;;;;;;;4.47;3.00;;;;;;;2.41;100.00;97911.41;5067015;28;20040;-59
2021/12/03 04:58:21;;;;;;;2.73;2.53;;;;;;;2.37;100.00;97909.72;5066242;28;20075;-60
2021/12/03 05:00:53;;;;;;;5.63;2.67;;;;;;;2.51;100.00;97920.69;5065726;28;20048;-58
2021/12/03 05:03:20;;;;;;;5.53;2.93;;;;;;;2.53;100.00;97921.53;5068577;28;20048;-59
2021/12/03 05:05:52;;;;;;;4.60;2.83;;;;;;;2.49;100.00;97919.00;5065429;28;20443;-56
2021/12/03 05:08:17;;;;;;;3.17;2.87;;;;;;;2.48;100.00;97929.94;5065069;28;20040;-60
2021/12/03 05:10:44;;;;;;;3.50;2.53;;;;;;;2.56;100.00;97938.38;5064919;28;20086;-59
2021/12/03 05:13:18;;;;;;;7.23;3.27;;;;;;;2.61;100.00;97929.97;5068294;28;20041;-59
2021/12/03 05:15:45;;;;;;;5.83;3.27;;;;;;;2.63;100.00;97942.63;5068868;28;20119;-59
2021/12/03 05:18:12;;;;;;;5.50;3.43;;;;;;;2.63;100.00;97952.75;5065871;28;20044;-60
2021/12/03 05:20:38;;;;;;;6.57;3.80;;;;;;;2.60;100.00;97946.00;5066405;28;20036;-59
2021/12/03 05:23:04;;;;;;;5.13;3.30;;;;;;;2.48;100.00;97963.69;5069588;28;20032;-59
2021/12/03 05:25:30;;;;;;;5.40;4.27;;;;;;;2.58;100.00;97960.34;5063958;28;20045;-57
2021/12/03 05:27:56;;;;;;;6.23;4.17;;;;;;;2.55;100.00;97964.53;5065528;28;20025;-55
2021/12/03 05:30:22;;;;;;;6.63;4.60;;;;;;;2.58;100.00;97978.06;5065941;28;20119;-58
2021/12/03 05:32:48;;;;;;;6.90;4.40;;;;;;;2.56;100.00;97974.66;5069662;28;20054;-56
2021/12/03 05:35:13;;;;;;;8.90;4.67;;;;;;;2.52;100.00;97992.34;5064140;28;20477;-59
2021/12/03 05:37:39;;;;;;;8.53;4.33;;;;;;;2.44;100.00;97989.81;5046750;28;20090;-56
2021/12/03 05:40:07;;;;;;;10.97;4.67;;;;;;;2.45;100.00;97993.19;5065911;28;20492;-58
2021/12/03 05:42:33;;;;;;;6.70;4.90;;;;;;;2.38;100.00;97997.38;5069418;28;20124;-57
2021/12/03 05:44:58;;;;;;;7.43;4.17;;;;;;;2.46;100.00;97994.88;5064878;28;20044;-59
2021/12/03 05:47:25;;;;;;;7.67;5.40;;;;;;;2.47;100.00;97999.94;5065000;28;20447;-58
2021/12/03 05:49:50;;;;;;;6.00;4.77;;;;;;;2.47;100.00;98011.72;5064273;28;20036;-58
2021/12/03 05:52:16;;;;;;;6.87;5.30;;;;;;;2.50;100.00;98011.75;5067585;28;20608;-57
2021/12/03 05:54:43;;;;;;;7.23;4.53;;;;;;;2.51;100.00;98018.50;5065581;28;20060;-58
2021/12/03 05:57:08;;;;;;;7.77;5.10;;;;;;;2.51;100.00;98026.94;5064951;28;20033;-58
2021/12/03 05:59:34;;;;;;;6.43;4.17;;;;;;;2.59;100.00;98032.03;5067825;28;20051;-58
2021/12/03 06:01:59;;;;;;;6.23;5.10;;;;;;;2.63;100.00;98032.00;5069160;28;20497;-58
2021/12/03 06:04:24;;;;;;;7.00;5.23;;;;;;;2.65;100.00;98035.41;5054010;28;20075;-57
2021/12/03 06:06:50;;;;;;;8.23;4.43;;;;;;;2.61;100.00;98035.41;5044717;28;20394;-57
2021/12/03 06:09:15;;;;;;;9.50;6.57;;;;;;;2.57;100.00;98039.59;5048976;28;20124;-62
2021/12/03 06:11:41;;;;;;;9.00;6.33;;;;;;;2.55;100.00;98040.41;5048649;28;20056;-58
2021/12/03 06:14:06;;;;;;;9.67;6.10;;;;;;;2.56;100.00;98053.09;5065968;28;20082;-58
2021/12/03 06:16:32;;;;;;;10.00;6.97;;;;;;;2.49;100.00;98058.13;5064580;28;20029;-58
2021/12/03 06:18:57;;;;;;;12.93;9.20;;;;;;;2.47;100.00;98052.19;5069461;28;20044;-58
2021/12/03 06:21:23;;;;;;;18.30;8.60;;;;;;;2.48;100.00;98056.44;5052436;28;20429;-55
2021/12/03 06:23:48;;;;;;;13.53;8.33;;;;;;;2.42;100.00;98062.31;5065554;28;20091;-56
2021/12/03 06:26:14;;;;;;;8.73;6.67;;;;;;;2.47;100.00;98067.38;5064541;28;20052;-58
2021/12/03 06:28:40;;;;;;;12.57;6.57;;;;;;;2.47;100.00;98068.22;5069439;28;20040;-58
2021/12/03 06:31:07;;;;;;;11.27;6.83;;;;;;;2.53;100.00;98077.53;5067498;28;20098;-59
2021/12/03 06:33:33;;;;;;;13.03;7.27;;;;;;;2.50;100.00;98075.84;5065603;28;20055;-57
2021/12/03 06:35:58;;;;;;;8.67;6.70;;;;;;;2.54;100.00;98089.34;5065916;28;20033;-57
2021/12/03 06:38:24;;;;;;;9.90;7.00;;;;;;;2.52;100.00;98096.94;5068516;28;20127;-58
2021/12/03 06:40:51;;;;;;;9.80;7.10;;;;;;;2.49;100.00;98102.00;5066022;28;20536;-56
2021/12/03 06:43:17;;;;;;;12.40;8.07;;;;;;;2.55;100.00;98112.13;5062369;28;20059;-58
2021/12/03 06:45:43;;;;;;;13.50;8.00;;;;;;;2.54;100.00;98115.50;5067076;28;20109;-57
2021/12/03 06:48:08;;;;;;;18.77;12.27;;;;;;;2.49;100.00;98124.75;5070018;28;20044;-58
2021/12/03 06:50:35;;;;;;;30.10;16.03;;;;;;;2.57;100.00;98130.69;5068687;28;20060;-58
2021/12/03 06:53:06;;;;;;;13.63;8.77;;;;;;;2.52;100.00;98136.56;5065883;28;20044;-58
2021/12/03 06:55:38;;;;;;;12.17;8.47;;;;;;;2.52;100.00;98139.94;5067379;28;20032;-58
2021/12/03 06:58:04;;;;;;;9.80;8.13;;;;;;;2.57;100.00;98135.75;5070411;28;20052;-58
2021/12/03 07:00:30;;;;;;;15.03;9.40;;;;;;;2.51;100.00;98142.44;5067410;28;20032;-56
2021/12/03 07:02:55;;;;;;;11.60;8.80;;;;;;;2.59;100.00;98156.00;5062468;28;20050;-56
2021/12/03 07:05:20;;;;;;;11.73;7.63;;;;;;;2.53;100.00;98154.28;5048379;28;20057;-58
2021/12/03 07:07:47;;;;;;;11.40;8.00;;;;;;;2.42;100.00;98162.66;5050000;28;20041;-56
2021/12/03 07:10:13;;;;;;;12.63;8.13;;;;;;;2.32;100.00;98169.34;5046691;28;20043;-58
2021/12/03 07:12:39;;;;;;;12.40;6.97;;;;;;;2.42;100.00;98166.00;5044703;28;20045;-56
2021/12/03 07:15:05;;;;;;;8.60;6.07;;;;;;;2.51;100.00;98171.13;5048258;28;20045;-58
2021/12/03 07:17:32;;;;;;;6.93;5.73;;;;;;;2.48;100.00;98175.31;5049682;28;20036;-57
2021/12/03 07:19:59;;;;;;;5.80;4.97;;;;;;;2.43;100.00;98179.50;5047422;28;20445;-57
2021/12/03 07:22:26;;;;;;;6.53;4.90;;;;;;;2.46;100.00;98171.97;5043777;28;20399;-55
2021/12/03 07:24:51;;;;;;;8.37;5.87;;;;;;;2.47;100.00;98177.00;5043748;28;20581;-54
2021/12/03 07:27:17;;;;;;;7.63;4.80;;;;;;;2.35;100.00;98194.66;5045152;28;20041;-57
2021/12/03 07:29:47;;;;;;;5.83;4.47;;;;;;;2.31;100.00;98195.47;5045378;28;20033;-58
2021/12/03 07:32:17;;;;;;;6.07;4.70;;;;;;;2.22;100.00;98200.47;5044477;28;20049;-57
2021/12/03 07:34:42;;;;;;;5.10;4.53;;;;;;;2.13;100.00;98211.34;5047541;28;20622;-57
2021/12/03 07:37:08;;;;;;;5.17;3.77;;;;;;;2.09;100.00;98222.28;5048871;28;20117;-58
2021/12/03 07:39:34;;;;;;;3.87;3.20;;;;;;;1.98;100.00;98223.03;5045069;28;20033;-57
2021/12/03 07:41:59;;;;;;;5.93;4.93;;;;;;;1.93;100.00;98227.19;5045349;28;20048;-58
2021/12/03 07:44:25;;;;;;;4.63;3.93;;;;;;;1.99;100.00;98229.78;5048617;28;20514;-59
2021/12/03 07:46:50;;;;;;;6.10;4.03;;;;;;;2.04;100.00;98245.81;5048038;28;20471;-57
2021/12/03 07:49:16;;;;;;;7.07;3.87;;;;;;;2.00;100.00;98252.53;5043348;28;20033;-58
2021/12/03 07:51:42;;;;;;;4.70;3.53;;;;;;;1.97;100.00;98264.31;5044809;28;20037;-57
2021/12/03 07:54:07;;;;;;;5.23;4.20;;;;;;;1.90;100.00;98262.56;5047752;28;20491;-58
2021/12/03 07:56:33;;;;;;;5.60;3.30;;;;;;;1.83;100.00;98267.53;5049222;28;20041;-58
2021/12/03 07:58:58;;;;;;;5.73;3.90;;;;;;;1.81;100.00;98261.66;5044668;28;20480;-57
2021/12/03 08:01:24;;;;;;;4.63;3.53;;;;;;;1.73;100.00;98262.41;5043937;28;20068;-57
2021/12/03 08:03:50;;;;;;;5.37;3.50;;;;;;;1.70;100.00;98258.16;5048973;28;20070;-58
2021/12/03 08:06:16;;;;;;;5.40;3.77;;;;;;;1.69;100.00;98266.59;5049090;28;20076;-58
2021/12/03 08:08:41;;;;;;;5.13;3.57;;;;;;;1.71;100.00;98269.97;5045726;28;20088;-58
2021/12/03 08:11:08;;;;;;;4.13;3.50;;;;;;;1.77;100.00;98275.09;5046265;28;20081;-58
2021/12/03 08:13:34;;;;;;;5.90;3.40;;;;;;;1.68;100.00;98285.09;5049065;28;20048;-57
2021/12/03 08:16:01;;;;;;;4.00;2.47;;;;;;;1.59;100.00;98299.31;5048092;28;20060;-58
2021/12/03 08:18:26;;;;;;;6.17;2.33;;;;;;;1.58;100.00;98292.53;5044102;28;20441;-56
2021/12/03 08:20:53;;;;;;;2.60;2.20;;;;;;;1.50;100.00;98297.53;5045989;28;20033;-55
2021/12/03 08:23:18;;;;;;;4.37;2.80;;;;;;;1.47;100.00;98312.66;5048603;28;20076;-54
2021/12/03 08:25:44;;;;;;;4.63;2.33;;;;;;;1.59;100.00;98310.25;5047182;28;20635;-56
2021/12/03 08:28:09;;;;;;;3.17;2.40;;;;;;;1.68;100.00;98305.31;5045624;28;20521;-57
2021/12/03 08:30:35;;;;;;;2.47;2.27;;;;;;;1.74;100.00;98312.13;5050269;28;20071;-57
2021/12/03 08:33:01;;;;;;;2.87;2.10;;;;;;;1.76;100.00;98307.91;5049280;28;20591;-56
2021/12/03 08:35:26;;;;;;;2.87;2.20;;;;;;;1.91;100.00;98317.34;5048789;28;20431;-56
2021/12/03 08:37:52;;;;;;;5.40;3.30;;;;;;;2.11;100.00;98336.94;5047574;28;20033;-56
2021/12/03 08:40:19;;;;;;;5.37;2.20;;;;;;;2.01;100.00;98334.28;5048083;28;20374;-58
2021/12/03 08:42:45;;;;;;;4.30;3.10;;;;;;;1.92;100.00;98341.75;5050624;28;20063;-58
2021/12/03 08:45:12;;;;;;;5.40;2.80;;;;;;;1.98;100.00;98324.16;5047043;28;20503;-58
2021/12/03 08:47:39;;;;;;;3.20;2.70;;;;;;;1.85;100.00;98338.34;5047184;28;20037;-57
2021/12/03 08:50:11;;;;;;;4.10;3.10;;;;;;;1.94;100.00;98332.53;5049016;28;20160;-58
2021/12/03 08:55:21;;;;;;;4.93;3.03;;;;;;;2.01;100.00;98347.75;5045932;28;20040;-57
2021/12/03 08:57:46;;;;;;;4.20;3.20;;;;;;;2.26;100.00;98336.19;5047782;28;20033;-57
2021/12/03 09:00:17;;;;;;;3.83;2.90;;;;;;;2.43;100.00;98336.34;5049352;28;20060;-57
2021/12/03 09:02:43;;;;;;;4.87;3.10;;;;;;;2.41;100.00;98336.34;5050207;28;20040;-57
2021/12/03 09:05:10;;;;;;;6.47;3.20;;;;;;;2.55;100.00;98338.97;5045503;28;20037;-57
2021/12/03 09:07:36;;;;;;;6.87;4.40;;;;;;;2.56;100.00;98339.00;5046957;28;20056;-56
2021/12/03 09:10:06;;;;;;;8.00;4.70;;;;;;;2.51;100.00;98358.34;5047746;28;20117;-56
2021/12/03 09:12:32;;;;;;;8.20;5.03;;;;;;;2.43;100.00;98357.44;5049066;28;20057;-58
2021/12/03 09:15:02;;;;;;;7.97;5.63;;;;;;;2.51;100.00;98367.59;5045703;28;20037;-58
2021/12/03 09:17:37;;;;;;;9.20;5.97;;;;;;;2.58;100.00;98361.78;5047961;28;20122;-58
2021/12/03 09:20:18;;;;;;;8.50;5.20;;;;;;;2.87;100.00;98359.47;5049229;28;20048;-60
2021/12/03 09:22:50;;;;;;;6.40;4.77;;;;;;;2.96;100.00;98362.91;5045597;28;20049;-57
2021/12/03 09:25:21;;;;;;;7.83;4.93;;;;;;;3.02;100.00;98369.69;5044170;28;20462;-57
2021/12/03 09:27:48;;;;;;;8.97;5.67;;;;;;;3.13;100.00;98370.63;5046738;28;20037;-58
2021/12/03 09:30:15;;;;;;;9.23;6.10;;;;;;;3.07;100.00;98389.16;5049974;28;20037;-58
2021/12/03 09:32:45;;;;;;;8.60;5.20;;;;;;;3.08;100.00;98379.88;5045208;28;20071;-57
2021/12/03 09:35:11;;;;;;;8.73;5.00;;;;;;;3.03;100.00;98378.97;5042606;28;20521;-59
2021/12/03 09:37:36;;;;;;;8.50;5.30;;;;;;;2.98;100.00;98375.56;5044348;28;20128;-59
2021/12/03 09:40:07;;;;;;;7.63;5.27;;;;;;;2.97;100.00;98374.72;5046134;28;20120;-60
2021/12/03 09:42:36;;;;;;;7.23;4.83;;;;;;;3.06;100.00;98372.25;5045429;28;20045;-59
2021/12/03 09:45:04;;;;;;;7.10;5.10;;;;;;;3.19;100.00;98368.97;5043598;28;20041;-59
2021/12/03 09:47:30;;;;;;;7.53;5.77;;;;;;;3.07;100.00;98368.03;5047492;28;20124;-60
2021/12/03 09:49:56;;;;;;;7.40;5.27;;;;;;;3.07;100.00;98362.97;5047894;28;20128;-59
2021/12/03 09:52:32;;;;;;;7.10;4.47;;;;;;;3.12;100.00;98372.31;5045323;28;20064;-58
2021/12/03 09:55:02;;;;;;;5.90;4.17;;;;;;;3.06;100.00;98368.88;5045655;28;20025;-60
2021/12/03 10:13:37;;;;;;;8.73;4.83;;;;;;;3.60;100.00;98369.19;5044819;28;20057;-59
2021/12/03 10:16:23;;;;;;;8.20;4.93;;;;;;;3.77;100.00;98368.41;5047776;28;20117;-59
2021/12/03 10:18:52;;;;;;;5.53;3.85;;;;;;;3.59;100.00;98361.56;5048528;28;20056;-61
2021/12/03 10:30:16;;;;;;;4.63;3.20;;;;;;;3.69;96.51;98343.03;5046239;28;20032;-59
2021/12/03 10:35:53;;;;;;;5.40;3.57;;;;;;;3.74;95.20;98348.09;5050937;28;19923;-60
2021/12/03 11:08:27;;;;;;;4.90;3.20;;;;;;;4.25;91.95;98350.75;5051858;28;20029;-58
2021/12/03 13:00:41;;;;;;;5.95;2.88;;;;;;;3.06;96.13;98396.72;4979805;28;20115;-61
2021/12/03 13:07:05;;;;;;;5.13;3.77;;;;;;;3.07;98.39;98401.81;4981596;28;20261;-59
2021/12/03 14:31:02;;;;;;;4.40;2.63;;;;;;;2.52;nan;98475.56;4904307;29;20750;-57
2021/12/03 14:42:58;;;;;;;5.07;4.37;;;;;;;2.27;nan;98505.66;4906180;29;20040;-58
2021/12/03 14:51:00;;;;;;;2.97;2.50;;;;;;;2.05;nan;98515.50;4959662;28;20158;-58
2021/12/03 14:56:02;;;;;;;7.13;3.70;;;;;;;1.87;nan;98510.22;4962471;28;20043;-58
2021/12/03 14:58:33;;;;;;;5.93;3.83;;;;;;;1.82;nan;98518.56;4963068;28;20062;-58
2021/12/03 15:01:14;;;;;;;7.70;4.33;;;;;;;1.77;nan;98511.78;4964714;28;20055;-60
2021/12/03 15:08:50;;;;;;;3.83;3.00;;;;;;;1.70;nan;98515.03;5068557;28;20036;-59
2021/12/03 15:19:47;;;;;;;5.97;3.83;;;;;;;1.51;nan;98521.50;5067558;28;20047;-57
2021/12/03 15:32:55;;;;;;;3.87;2.87;;;;;;;1.45;nan;98520.53;5039765;28;20079;-55
2021/12/03 16:10:19;;;;;;;3.33;2.63;;;;;;;0.67;nan;98519.28;5048524;28;20061;-59
2021/12/03 16:12:56;;;;;;;4.93;3.53;;;;;;;0.56;nan;98527.44;5048763;28;20040;-60
2021/12/03 16:52:58;;;;;;;27.77;13.50;;;;;;;-0.57;nan;98574.59;5043733;28;20106;-61
2021/12/03 16:55:24;;;;;;;32.13;16.90;;;;;;;-0.68;nan;98569.28;5043239;28;20033;-59
2021/12/03 16:57:52;;;;;;;29.00;13.70;;;;;;;-0.72;nan;98574.25;5043719;28;20751;-58
2021/12/03 17:02:58;;;;;;;22.70;12.87;;;;;;;-0.75;nan;98579.19;5047071;28;20099;-61
2021/12/03 17:54:01;;;;;;;25.37;12.23;;;;;;;-1.64;nan;98573.50;4941058;29;20279;-58
2021/12/03 17:56:29;;;;;;;21.97;11.67;;;;;;;-1.72;nan;98567.41;4945097;28;20039;-59
2021/12/03 17:59:04;;;;;;;20.73;11.33;;;;;;;-1.73;nan;98575.75;4948051;29;20130;-59
2021/12/03 18:04:20;;;;;;;23.93;12.03;;;;;;;-1.80;nan;98581.44;4942604;29;20541;-59
2021/12/03 18:06:56;;;;;;;21.20;11.67;;;;;;;-1.89;nan;98583.66;4945295;29;20600;-59
2021/12/03 18:55:30;;;;;;;17.47;11.03;;;;;;;-2.39;nan;98567.97;5019690;28;20120;-59
2021/12/03 18:58:00;;;;;;;24.57;12.33;;;;;;;-2.42;nan;98559.50;5047973;28;20036;-58
2021/12/03 19:00:29;;;;;;;23.70;12.23;;;;;;;-2.41;nan;98556.16;5045275;28;20036;-62
2021/12/03 19:02:57;;;;;;;22.83;13.20;;;;;;;-2.45;nan;98559.38;5050569;28;20068;-61
2021/12/03 19:05:36;;;;;;;26.33;13.90;;;;;;;-2.46;nan;98558.53;5070337;28;20040;-60
2021/12/03 19:08:32;;;;;;;26.77;14.43;;;;;;;-2.52;nan;98562.50;5065987;28;20052;-59
2021/12/03 19:10:53;;;;;;;29.03;14.10;;;;;;;-2.61;nan;98555.56;5076791;28;20484;-59
2021/12/03 19:13:25;;;;;;;28.70;13.10;;;;;;;-2.61;nan;98557.19;5089324;28;20130;-60
2021/12/03 19:15:50;;;;;;;27.37;13.60;;;;;;;-2.66;nan;98561.22;5089516;28;20051;-58
2021/12/03 19:18:20;;;;;;;33.43;17.20;;;;;;;-2.66;nan;98562.06;5066760;28;20393;-60
2021/12/03 19:20:47;;;;;;;43.27;20.03;;;;;;;-2.72;nan;98564.41;5087093;28;20035;-61
2021/12/03 19:23:13;;;;;;;43.57;22.43;;;;;;;-2.75;nan;98569.31;5088763;28;20412;-59